Time;durP1;ratioP1;P1;durP2;ratioP2;P2;SDS_P1;SDS_P2;PMS_P1;PMS_P2;Temp;Humidity;BMP_temperature;BMP_pressure;BME280_temperature;BME280_humidity;BME280_pressure;Samples;Min_cycle;Max_cycle;Signal;HPM_P1;HPM_P2
2023/03/29 00:02:28;;;;;;;2.67;1.70;;;5.40;99.90;;;;;;5002160;28;20198;-81
2023/03/29 00:04:55;;;;;;;4.53;2.22;;;5.30;99.90;;;;;;5007690;28;20026;-80
2023/03/29 00:07:22;;;;;;;7.18;2.15;;;5.40;99.90;;;;;;5023525;28;20034;-80
2023/03/29 00:09:48;;;;;;;5.55;1.98;;;5.40;99.90;;;;;;5007620;28;20096;-79
2023/03/29 00:12:13;;;;;;;4.63;1.88;;;5.40;99.90;;;;;;5008050;28;20037;-79
2023/03/29 00:14:39;;;;;;;4.28;2.10;;;5.50;99.90;;;;;;5009405;28;20485;-79
2023/03/29 00:17:05;;;;;;;3.45;1.95;;;5.60;99.90;;;;;;5012013;28;20046;-80
2023/03/29 00:19:34;;;;;;;3.72;2.20;;;5.50;99.90;;;;;;5019703;28;20034;-79
2023/03/29 00:22:00;;;;;;;6.18;2.15;;;5.40;99.90;;;;;;5023313;28;20033;-79
2023/03/29 00:24:26;;;;;;;5.50;2.60;;;5.50;99.90;;;;;;5033120;28;20226;-79
2023/03/29 00:26:51;;;;;;;6.25;2.17;;;5.80;99.90;;;;;;5002600;28;20138;-80
2023/03/29 00:29:17;;;;;;;4.53;2.25;;;5.50;99.90;;;;;;5003487;28;20128;-79
2023/03/29 00:31:52;;;;;;;6.03;2.72;;;5.50;99.90;;;;;;5009431;28;20018;-80
2023/03/29 00:34:21;;;;;;;4.00;2.07;;;5.20;99.90;;;;;;5002446;28;20030;-80
2023/03/29 00:36:49;;;;;;;6.30;1.73;;;5.60;99.90;;;;;;5006606;28;20056;-79
2023/03/29 00:39:16;;;;;;;2.70;1.85;;;5.70;99.90;;;;;;5021216;28;20057;-78
2023/03/29 00:41:46;;;;;;;4.50;1.88;;;5.90;99.90;;;;;;5008921;28;20048;-79
2023/03/29 00:44:49;;;;;;;4.95;1.83;;;5.60;99.90;;;;;;5009333;28;20030;-79
2023/03/29 00:47:16;;;;;;;4.72;1.42;;;5.60;99.90;;;;;;5013085;28;20063;-79
2023/03/29 00:49:43;;;;;;;4.30;2.13;;;5.60;99.90;;;;;;5005577;28;20126;-79
2023/03/29 00:52:09;;;;;;;4.32;1.80;;;5.80;99.90;;;;;;5013775;28;20064;-79
2023/03/29 00:54:36;;;;;;;3.17;1.77;;;5.40;99.90;;;;;;5034650;28;20775;-78
2023/03/29 00:57:02;;;;;;;3.70;1.73;;;5.60;99.90;;;;;;5016452;28;20030;-79
2023/03/29 00:59:28;;;;;;;5.80;2.10;;;5.70;99.90;;;;;;5007880;28;20162;-78
2023/03/29 01:01:58;;;;;;;3.35;2.10;;;5.50;99.90;;;;;;5012806;28;20072;-79
2023/03/29 01:05:04;;;;;;;4.70;1.60;;;5.50;99.90;;;;;;5005182;28;20871;-79
2023/03/29 01:07:35;;;;;;;2.25;1.42;;;5.60;99.90;;;;;;5017035;28;20108;-79
2023/03/29 01:10:09;;;;;;;5.68;2.00;;;5.70;99.90;;;;;;5029558;28;20405;-79
2023/03/29 01:12:41;;;;;;;3.78;1.70;;;5.60;99.90;;;;;;5004440;28;20029;-79
2023/03/29 01:15:12;;;;;;;3.85;1.40;;;5.70;99.90;;;;;;5018269;28;20531;-78
2023/03/29 01:17:39;;;;;;;3.55;2.28;;;5.80;99.90;;;;;;5017627;28;20504;-79
2023/03/29 01:20:13;;;;;;;5.68;2.17;;;5.60;99.90;;;;;;5030081;28;20026;-79
2023/03/29 01:22:38;;;;;;;4.10;1.80;;;5.70;99.90;;;;;;5011838;28;20048;-79
2023/03/29 01:25:25;;;;;;;6.75;1.73;;;6.30;99.90;;;;;;5028422;28;20038;-79
2023/03/29 01:27:53;;;;;;;;;;;5.60;99.90;;;;;;5022028;28;20029;-78
2023/03/29 01:30:30;;;;;;;5.85;1.98;;;5.60;99.90;;;;;;5017796;28;19975;-79
2023/03/29 01:33:02;;;;;;;2.78;2.13;;;5.70;99.90;;;;;;5004614;28;20036;-79
2023/03/29 01:35:39;;;;;;;3.83;2.00;;;5.60;99.90;;;;;;5022600;28;20038;-79
2023/03/29 01:38:12;;;;;;;5.22;2.13;;;5.70;99.90;;;;;;5005005;28;20060;-79
2023/03/29 01:40:37;;;;;;;4.22;2.00;;;5.70;99.90;;;;;;5017238;28;20073;-79
2023/03/29 01:43:29;;;;;;;3.30;1.73;;;5.70;99.90;;;;;;4999976;28;20053;-78
2023/03/29 01:46:09;;;;;;;4.38;1.90;;;5.70;99.90;;;;;;5015056;28;20033;-79
2023/03/29 01:48:49;;;;;;;4.38;2.13;;;5.70;99.90;;;;;;5033328;28;20033;-78
2023/03/29 01:51:28;;;;;;;7.28;1.98;;;5.80;99.90;;;;;;5017102;28;20402;-78
2023/03/29 01:54:04;;;;;;;2.30;1.65;;;5.80;99.90;;;;;;5008787;28;20409;-78
2023/03/29 01:56:31;;;;;;;3.65;1.77;;;5.70;99.90;;;;;;5021240;28;20537;-79
2023/03/29 01:59:02;;;;;;;3.25;2.10;;;5.70;99.90;;;;;;5018406;28;20108;-79
2023/03/29 02:01:30;;;;;;;3.67;1.77;;;5.80;99.90;;;;;;5001753;28;20053;-79
2023/03/29 02:04:01;;;;;;;3.63;2.33;;;5.80;99.90;;;;;;4999039;28;20634;-79
2023/03/29 02:06:27;;;;;;;3.65;1.58;;;5.80;99.90;;;;;;5016241;28;20037;-79
2023/03/29 02:08:53;;;;;;;2.05;1.05;;;5.90;99.90;;;;;;5014139;28;20026;-78
2023/03/29 02:11:18;;;;;;;3.75;1.70;;;5.80;99.90;;;;;;5005480;28;20034;-78
2023/03/29 02:13:44;;;;;;;3.22;1.90;;;5.80;99.90;;;;;;5006246;28;20145;-79
2023/03/29 02:16:11;;;;;;;2.85;1.75;;;5.80;99.90;;;;;;5028156;28;20069;-79
2023/03/29 02:18:41;;;;;;;3.10;2.08;;;5.60;99.90;;;;;;5002379;28;20602;-79
2023/03/29 02:21:07;;;;;;;4.18;1.83;;;5.70;99.90;;;;;;5016636;28;20486;-79
2023/03/29 02:23:35;;;;;;;2.88;1.83;;;5.80;99.90;;;;;;5033989;28;20083;-79
2023/03/29 02:26:02;;;;;;;4.45;2.13;;;5.70;99.90;;;;;;5015164;28;20054;-79
2023/03/29 02:28:27;;;;;;;2.17;1.70;;;5.70;99.90;;;;;;5015702;28;20379;-79
2023/03/29 02:30:58;;;;;;;3.10;1.60;;;5.80;99.90;;;;;;5004155;28;20032;-79
2023/03/29 02:33:34;;;;;;;2.65;1.55;;;5.90;99.90;;;;;;5030643;28;20037;-79
2023/03/29 02:36:06;;;;;;;3.28;1.67;;;5.90;99.90;;;;;;5028647;28;20040;-79
2023/03/29 02:38:32;;;;;;;3.63;1.75;;;5.90;99.90;;;;;;5002902;28;20147;-80
2023/03/29 02:41:01;;;;;;;3.40;1.60;;;5.90;99.90;;;;;;5001799;28;20054;-79
2023/03/29 02:43:27;;;;;;;3.67;1.83;;;5.90;99.90;;;;;;5006564;28;20156;-79
2023/03/29 02:45:52;;;;;;;2.10;1.05;;;6.00;99.90;;;;;;5013191;28;20117;-79
2023/03/29 02:48:20;;;;;;;4.63;2.05;;;6.00;99.90;;;;;;5016838;28;20026;-78
2023/03/29 02:50:47;;;;;;;4.38;1.90;;;5.50;99.90;;;;;;4989950;28;20026;-79
2023/03/29 02:53:16;;;;;;;4.85;1.75;;;6.00;99.90;;;;;;5015989;28;20041;-79
2023/03/29 02:55:41;;;;;;;2.10;1.50;;;6.00;99.90;;;;;;5005059;28;20038;-79
2023/03/29 02:58:07;;;;;;;7.05;1.90;;;6.20;99.90;;;;;;5015919;28;20076;-79
2023/03/29 03:00:38;;;;;;;3.03;1.88;;;5.80;99.90;;;;;;5020406;28;20393;-79
2023/03/29 03:03:04;;;;;;;6.60;2.30;;;6.70;99.90;;;;;;5020214;28;20199;-79
2023/03/29 03:05:30;;;;;;;2.70;1.67;;;5.40;99.90;;;;;;5004038;28;20029;-79
2023/03/29 03:07:57;;;;;;;4.10;1.83;;;6.10;99.90;;;;;;5001174;28;20709;-79
2023/03/29 03:10:22;;;;;;;4.38;2.08;;;6.00;99.90;;;;;;5010483;28;20045;-79
2023/03/29 03:12:48;;;;;;;1.80;1.30;;;5.90;99.90;;;;;;4992486;28;20045;-79
2023/03/29 03:15:13;;;;;;;3.47;1.67;;;6.10;99.90;;;;;;5005456;28;20049;-79
2023/03/29 03:17:39;;;;;;;3.85;1.80;;;6.20;99.90;;;;;;5024350;28;20032;-79
2023/03/29 03:20:11;;;;;;;6.18;1.42;;;6.20;99.90;;;;;;5004007;28;20115;-79
2023/03/29 03:22:38;;;;;;;3.38;1.75;;;6.20;99.90;;;;;;5004042;28;20030;-79
2023/03/29 03:25:04;;;;;;;4.07;1.80;;;6.30;99.90;;;;;;5034536;28;20034;-79
2023/03/29 03:27:29;;;;;;;4.32;1.95;;;6.30;99.90;;;;;;5003385;28;20092;-79
2023/03/29 03:29:55;;;;;;;5.10;1.98;;;6.30;99.90;;;;;;5020544;28;20737;-78
2023/03/29 03:32:20;;;;;;;3.45;2.00;;;6.20;99.90;;;;;;5018112;28;20030;-79
2023/03/29 03:34:46;;;;;;;3.13;1.88;;;6.30;99.90;;;;;;4995804;28;20113;-79
2023/03/29 03:37:12;;;;;;;2.58;1.45;;;6.20;99.90;;;;;;5020177;28;20040;-79
2023/03/29 03:39:37;;;;;;;3.38;1.88;;;6.20;99.90;;;;;;5010480;28;20164;-79
2023/03/29 03:42:03;;;;;;;4.78;2.72;;;7.10;99.90;;;;;;5004930;28;20401;-79
2023/03/29 03:44:28;;;;;;;3.35;1.23;;;6.30;99.90;;;;;;5017324;28;20030;-80
2023/03/29 03:46:54;;;;;;;6.57;2.00;;;6.10;99.90;;;;;;5014270;28;20061;-79
2023/03/29 03:49:20;;;;;;;3.40;2.30;;;6.30;99.90;;;;;;5009392;28;20497;-79
2023/03/29 03:51:46;;;;;;;3.83;2.10;;;6.30;99.90;;;;;;5008507;28;20152;-79
2023/03/29 03:54:11;;;;;;;4.70;2.25;;;6.30;99.90;;;;;;5019447;28;20120;-79
2023/03/29 03:56:37;;;;;;;5.10;1.90;;;6.30;99.90;;;;;;4992077;28;20034;-79
2023/03/29 03:59:03;;;;;;;4.38;2.13;;;6.20;99.90;;;;;;5018958;28;20033;-80
2023/03/29 04:01:29;;;;;;;5.03;1.92;;;6.10;99.90;;;;;;5006606;28;20037;-79
2023/03/29 04:03:54;;;;;;;4.85;2.40;;;6.40;99.90;;;;;;5009347;28;20030;-79
2023/03/29 04:06:20;;;;;;;4.95;2.38;;;6.30;99.90;;;;;;5009861;28;20029;-79
2023/03/29 04:08:46;;;;;;;5.63;2.90;;;6.20;99.90;;;;;;5021334;28;20018;-79
2023/03/29 04:11:12;;;;;;;7.88;2.83;;;6.30;99.90;;;;;;5023046;28;20030;-80
2023/03/29 04:13:38;;;;;;;5.65;2.95;;;6.10;99.90;;;;;;5008156;28;20037;-79
2023/03/29 04:16:04;;;;;;;2.33;1.70;;;6.20;99.90;;;;;;5003992;28;20037;-79
2023/03/29 04:18:30;;;;;;;3.45;2.17;;;6.30;99.90;;;;;;5001586;28;20034;-79
2023/03/29 04:20:55;;;;;;;4.15;2.35;;;6.10;99.90;;;;;;5014762;28;20067;-80
2023/03/29 04:23:21;;;;;;;3.92;2.33;;;6.20;99.90;;;;;;5017282;28;20425;-80
2023/03/29 04:25:46;;;;;;;4.30;2.38;;;6.20;99.90;;;;;;5020000;28;20040;-80
2023/03/29 04:28:12;;;;;;;3.47;2.65;;;6.00;99.90;;;;;;5016856;28;20455;-80
2023/03/29 04:30:38;;;;;;;5.05;2.30;;;6.20;99.90;;;;;;5008683;28;20041;-79
2023/03/29 04:33:03;;;;;;;7.70;2.40;;;6.30;99.90;;;;;;5031231;28;20038;-80
2023/03/29 04:35:29;;;;;;;3.40;2.10;;;6.10;99.90;;;;;;5035122;28;20076;-79
2023/03/29 04:37:54;;;;;;;3.83;2.05;;;6.20;99.90;;;;;;5015892;28;20512;-79
2023/03/29 04:40:20;;;;;;;5.60;2.78;;;6.20;99.90;;;;;;5018334;28;20067;-79
2023/03/29 04:42:46;;;;;;;8.02;2.85;;;6.30;99.90;;;;;;5025827;28;20443;-79
2023/03/29 04:45:12;;;;;;;5.65;2.13;;;6.20;99.90;;;;;;5022335;28;20048;-79
2023/03/29 04:47:42;;;;;;;4.57;2.25;;;6.20;99.90;;;;;;5024215;28;20072;-79
2023/03/29 04:50:08;;;;;;;5.47;2.78;;;6.30;99.90;;;;;;5005028;28;20038;-79
2023/03/29 04:52:33;;;;;;;1.85;1.33;;;6.30;99.90;;;;;;5019473;28;20045;-79
2023/03/29 04:55:00;;;;;;;3.50;1.92;;;6.00;99.90;;;;;;5018056;28;20072;-79
2023/03/29 04:57:26;;;;;;;2.63;2.10;;;6.60;99.90;;;;;;5034998;28;20088;-79
2023/03/29 04:59:51;;;;;;;6.25;2.08;;;6.20;99.90;;;;;;5030099;28;20037;-79
2023/03/29 05:02:17;;;;;;;3.05;1.67;;;6.20;99.90;;;;;;5017301;28;20058;-79
2023/03/29 05:04:43;;;;;;;2.22;1.30;;;6.10;99.90;;;;;;5017757;28;20033;-80
2023/03/29 05:07:08;;;;;;;4.28;2.15;;;6.70;99.90;;;;;;5019520;28;20026;-79
2023/03/29 05:09:34;;;;;;;8.45;2.55;;;6.00;99.90;;;;;;5027189;28;20034;-78
2023/03/29 05:12:00;;;;;;;8.75;2.78;;;6.60;99.90;;;;;;5018371;28;20033;-80
2023/03/29 05:14:26;;;;;;;5.97;2.85;;;6.20;99.90;;;;;;5001433;28;20030;-79
2023/03/29 05:16:51;;;;;;;5.32;2.53;;;6.20;99.90;;;;;;5004201;28;20456;-79
2023/03/29 05:19:20;;;;;;;6.07;4.40;;;5.80;99.90;;;;;;5004686;28;20703;-79
2023/03/29 05:21:46;;;;;;;7.28;3.92;;;6.20;99.90;;;;;;5002143;28;20026;-79
2023/03/29 05:24:12;;;;;;;7.72;3.55;;;7.10;99.90;;;;;;5030665;28;20036;-79
2023/03/29 05:26:38;;;;;;;8.30;4.22;;;6.10;99.90;;;;;;5026294;28;20037;-80
2023/03/29 05:29:04;;;;;;;5.40;3.65;;;7.00;99.90;;;;;;5001662;28;20044;-80
2023/03/29 05:31:31;;;;;;;8.70;4.00;;;6.20;99.90;;;;;;5014071;28;20030;-80
2023/03/29 05:33:57;;;;;;;4.85;3.40;;;6.10;99.90;;;;;;5028847;28;20038;-80
2023/03/29 05:36:22;;;;;;;9.85;4.75;;;6.30;99.90;;;;;;5005170;28;20044;-80
2023/03/29 05:38:48;;;;;;;6.35;3.40;;;5.90;99.90;;;;;;4990958;28;20041;-80
2023/03/29 05:41:14;;;;;;;10.07;4.13;;;6.10;99.90;;;;;;5020661;28;20049;-80
2023/03/29 05:43:40;;;;;;;9.48;5.93;;;6.10;99.90;;;;;;5018804;28;20080;-80
2023/03/29 05:46:06;;;;;;;12.45;6.05;;;6.00;99.90;;;;;;5005467;28;20033;-80
2023/03/29 05:48:32;;;;;;;9.48;4.38;;;6.80;99.90;;;;;;5023169;28;20609;-79
2023/03/29 05:50:57;;;;;;;9.68;5.60;;;6.10;99.90;;;;;;5017729;28;20513;-80
2023/03/29 05:53:23;;;;;;;5.43;3.58;;;6.20;99.90;;;;;;5020724;28;20144;-80
2023/03/29 05:55:50;;;;;;;6.63;4.22;;;6.20;99.90;;;;;;5001352;28;20045;-80
2023/03/29 05:58:16;;;;;;;9.35;5.13;;;6.00;99.90;;;;;;5012776;28;20036;-80
2023/03/29 06:00:42;;;;;;;8.43;4.68;;;6.00;99.90;;;;;;4999735;28;20061;-80
2023/03/29 06:03:15;;;;;;;10.30;5.70;;;6.40;99.90;;;;;;4998865;28;20058;-81
2023/03/29 06:05:41;;;;;;;8.70;5.75;;;6.30;99.90;;;;;;5032680;28;20103;-81
2023/03/29 06:08:07;;;;;;;9.55;4.78;;;6.00;99.90;;;;;;5013443;28;20085;-80
2023/03/29 06:10:35;;;;;;;7.82;4.05;;;5.90;99.90;;;;;;5031842;28;20482;-80
2023/03/29 06:13:01;;;;;;;8.50;5.60;;;7.50;99.90;;;;;;5004351;28;20044;-80
2023/03/29 06:15:26;;;;;;;9.52;4.55;;;6.30;99.90;;;;;;5004203;28;20390;-80
2023/03/29 06:17:52;;;;;;;8.55;5.03;;;6.40;99.90;;;;;;5014944;28;20508;-80
2023/03/29 06:20:18;;;;;;;7.38;4.47;;;6.60;99.90;;;;;;5000626;28;20041;-80
2023/03/29 06:22:45;;;;;;;9.77;4.65;;;6.40;99.90;;;;;;5003218;28;20021;-81
2023/03/29 06:25:11;;;;;;;5.18;3.92;;;6.30;99.90;;;;;;5002842;28;20075;-80
2023/03/29 06:27:36;;;;;;;6.93;4.18;;;6.40;99.90;;;;;;5000607;28;20061;-81
2023/03/29 06:30:04;;;;;;;9.90;3.92;;;6.40;99.90;;;;;;4999017;28;20064;-81
2023/03/29 06:32:32;;;;;;;8.02;3.90;;;6.50;99.90;;;;;;5000434;28;20457;-81
2023/03/29 06:34:57;;;;;;;7.00;4.03;;;6.50;99.90;;;;;;5013328;28;20033;-80
2023/03/29 06:37:23;;;;;;;7.03;3.92;;;6.40;99.90;;;;;;5003926;28;20026;-79
2023/03/29 06:39:52;;;;;;;5.38;3.85;;;6.60;99.90;;;;;;4993464;28;20037;-80
2023/03/29 06:42:21;;;;;;;7.53;4.00;;;6.50;99.90;;;;;;5016253;28;20612;-82
2023/03/29 06:44:47;;;;;;;6.18;3.40;;;6.50;99.90;;;;;;5022700;28;20549;-81
2023/03/29 06:47:13;;;;;;;8.05;4.28;;;6.90;99.90;;;;;;4997451;28;20113;-80
2023/03/29 06:49:39;;;;;;;7.13;4.13;;;6.60;99.90;;;;;;5023013;28;20120;-81
2023/03/29 06:52:04;;;;;;;6.90;4.03;;;6.80;99.90;;;;;;5019309;28;20137;-80
2023/03/29 06:54:30;;;;;;;7.00;3.97;;;7.00;99.90;;;;;;5006863;28;20034;-80
2023/03/29 06:56:56;;;;;;;6.80;4.43;;;6.70;99.90;;;;;;5003828;28;20503;-81
2023/03/29 06:59:22;;;;;;;7.80;3.80;;;6.90;99.90;;;;;;5001933;28;20409;-80
2023/03/29 07:01:47;;;;;;;6.97;4.38;;;7.20;99.90;;;;;;5018960;28;20026;-81
2023/03/29 07:04:13;;;;;;;8.23;3.50;;;6.90;99.90;;;;;;5019923;28;20628;-80
2023/03/29 07:06:39;;;;;;;6.97;3.78;;;6.90;99.90;;;;;;5003508;28;20026;-80
2023/03/29 07:09:05;;;;;;;6.78;4.15;;;7.10;99.90;;;;;;5025191;28;20037;-79
2023/03/29 07:11:35;;;;;;;6.80;3.55;;;7.00;99.90;;;;;;5012768;28;20084;-80
2023/03/29 07:14:01;;;;;;;10.48;4.10;;;6.90;99.90;;;;;;5023553;28;20087;-79
2023/03/29 07:16:27;;;;;;;6.30;3.40;;;7.50;99.90;;;;;;5018680;28;20030;-80
2023/03/29 07:18:53;;;;;;;7.65;3.53;;;6.80;99.90;;;;;;5005845;28;20651;-80
2023/03/29 07:21:19;;;;;;;4.93;3.13;;;7.00;99.90;;;;;;5004181;28;20401;-80
2023/03/29 07:23:44;;;;;;;5.60;3.67;;;7.10;99.90;;;;;;4992590;28;20049;-80
2023/03/29 07:26:13;;;;;;;6.90;2.78;;;7.60;99.90;;;;;;5000964;28;20045;-79
2023/03/29 07:28:38;;;;;;;4.18;2.88;;;7.80;99.90;;;;;;5018248;28;20037;-79
2023/03/29 07:31:10;;;;;;;11.10;3.90;;;7.30;99.90;;;;;;5014780;28;20030;-80
2023/03/29 07:33:36;;;;;;;10.00;3.45;;;7.50;99.90;;;;;;5030597;28;20128;-80
2023/03/29 07:36:03;;;;;;;7.20;3.22;;;7.70;99.90;;;;;;5001275;28;20026;-80
2023/03/29 07:38:30;;;;;;;6.43;3.45;;;7.70;99.90;;;;;;5017357;28;20038;-81
2023/03/29 07:40:56;;;;;;;7.75;2.75;;;7.20;99.90;;;;;;4998300;28;20041;-80
2023/03/29 07:43:22;;;;;;;8.25;3.70;;;7.60;99.90;;;;;;5018593;28;20034;-81
2023/03/29 07:45:51;;;;;;;7.35;3.05;;;7.40;99.90;;;;;;5008496;28;20560;-80
2023/03/29 07:48:18;;;;;;;6.50;2.67;;;7.60;99.90;;;;;;5010619;28;20033;-79
2023/03/29 07:50:46;;;;;;;8.48;3.65;;;7.60;99.90;;;;;;5015037;28;20033;-79
2023/03/29 07:53:12;;;;;;;9.55;3.08;;;8.30;99.90;;;;;;5025080;28;20038;-79
2023/03/29 07:55:45;;;;;;;4.72;2.65;;;7.90;99.90;;;;;;5018654;28;20038;-79
2023/03/29 07:58:10;;;;;;;7.43;2.72;;;7.80;99.90;;;;;;5006171;28;20036;-79
2023/03/29 08:00:36;;;;;;;5.57;2.53;;;8.00;99.90;;;;;;5018432;28;20025;-79
2023/03/29 08:03:02;;;;;;;4.20;2.95;;;7.90;99.90;;;;;;5018667;28;20046;-78
2023/03/29 08:05:28;;;;;;;7.53;3.60;;;7.90;99.90;;;;;;5020968;28;20125;-79
2023/03/29 08:07:54;;;;;;;6.50;3.60;;;8.00;99.90;;;;;;5003072;28;20125;-79
2023/03/29 08:10:20;;;;;;;6.57;3.30;;;8.20;99.90;;;;;;5007148;28;20053;-81
2023/03/29 08:12:46;;;;;;;6.53;2.65;;;8.30;99.90;;;;;;5009175;28;20057;-80
2023/03/29 08:15:12;;;;;;;6.82;3.20;;;8.30;99.90;;;;;;5037373;28;20116;-80
2023/03/29 08:17:38;;;;;;;4.28;2.50;;;8.00;99.90;;;;;;5023910;28;20128;-80
2023/03/29 08:20:04;;;;;;;10.32;2.92;;;7.90;99.90;;;;;;4992806;28;20054;-79
2023/03/29 08:22:31;;;;;;;5.55;2.40;;;8.40;99.90;;;;;;5032879;28;20040;-81
2023/03/29 08:24:57;;;;;;;4.05;2.67;;;8.30;99.90;;;;;;5010426;28;20026;-80
2023/03/29 08:27:23;;;;;;;8.85;2.67;;;8.30;99.90;;;;;;5028361;28;20512;-79
2023/03/29 08:29:48;;;;;;;7.57;3.33;;;8.40;99.90;;;;;;5022448;28;20080;-80
2023/03/29 08:32:14;;;;;;;3.35;1.83;;;8.30;99.90;;;;;;5021622;28;20040;-79
2023/03/29 08:34:40;;;;;;;4.60;2.55;;;8.50;99.90;;;;;;5020666;28;20108;-78
2023/03/29 08:37:05;;;;;;;6.70;3.00;;;8.40;99.90;;;;;;5022434;28;20038;-80
2023/03/29 08:39:31;;;;;;;9.48;3.65;;;8.40;99.90;;;;;;5034388;28;20551;-81
2023/03/29 08:42:15;;;;;;;8.43;2.90;;;8.50;99.90;;;;;;5022671;28;20029;-79
2023/03/29 08:45:06;;;;;;;6.75;2.97;;;8.70;99.90;;;;;;5020234;28;20032;-81
2023/03/29 08:47:51;;;;;;;10.55;3.88;;;8.70;99.90;;;;;;5021875;28;20493;-80
2023/03/29 08:50:20;;;;;;;9.70;3.50;;;8.80;99.90;;;;;;5015410;28;20025;-80
2023/03/29 08:52:56;;;;;;;7.85;3.85;;;8.80;99.90;;;;;;4991387;28;20489;-80
2023/03/29 08:55:31;;;;;;;7.00;2.03;;;8.80;99.90;;;;;;4999940;28;20128;-78
2023/03/29 08:57:56;;;;;;;9.00;3.22;;;8.70;99.90;;;;;;5022284;28;20034;-81
2023/03/29 09:00:28;;;;;;;9.70;4.22;;;8.80;99.90;;;;;;5015709;28;20529;-82
2023/03/29 09:02:56;;;;;;;6.78;3.83;;;8.90;99.90;;;;;;5016438;28;20104;-83
2023/03/29 09:05:36;;;;;;;9.18;3.78;;;8.90;99.90;;;;;;5024941;28;20029;-84
2023/03/29 09:08:02;;;;;;;9.18;3.47;;;9.20;99.90;;;;;;4993632;28;20060;-84
2023/03/29 09:10:34;;;;;;;10.15;4.68;;;9.50;99.90;;;;;;5010857;28;20049;-83
2023/03/29 09:13:25;;;;;;;6.15;3.67;;;8.70;99.90;;;;;;5012455;28;20038;-84
2023/03/29 09:16:02;;;;;;;7.18;3.70;;;9.50;99.90;;;;;;5021461;28;20065;-84
2023/03/29 09:19:12;;;;;;;10.23;4.15;;;10.10;99.90;;;;;;5003345;28;20786;-85
2023/03/29 09:21:56;;;;;;;10.05;3.70;;;9.80;99.90;;;;;;4987669;28;20641;-86
2023/03/29 09:24:43;;;;;;;12.15;4.15;;;9.80;99.90;;;;;;5033798;28;20048;-84
2023/03/29 09:27:09;;;;;;;9.70;3.58;;;9.90;99.90;;;;;;5024803;28;20483;-84
2023/03/29 09:29:56;;;;;;;7.65;3.00;;;10.40;99.90;;;;;;5037520;28;20033;-84
2023/03/29 09:32:28;;;;;;;6.47;3.38;;;10.10;99.90;;;;;;5030954;28;20030;-82
2023/03/29 09:35:17;;;;;;;9.60;3.75;;;10.10;99.90;;;;;;5013498;28;20494;-82
2023/03/29 09:37:44;;;;;;;10.90;5.00;;;10.20;99.90;;;;;;5008616;28;20041;-81
2023/03/29 09:40:16;;;;;;;15.52;5.07;;;10.30;99.90;;;;;;5007413;28;20057;-81
2023/03/29 09:42:43;;;;;;;4.95;3.38;;;10.50;99.90;;;;;;4994179;28;20033;-80
2023/03/29 09:45:09;;;;;;;8.48;4.28;;;10.60;99.90;;;;;;5023554;28;20437;-83
2023/03/29 09:47:49;;;;;;;7.45;3.65;;;10.60;99.90;;;;;;5010249;28;20030;-81
2023/03/29 09:50:25;;;;;;;10.00;3.78;;;10.60;99.90;;;;;;5024830;28;20069;-80
2023/03/29 09:52:50;;;;;;;9.07;4.00;;;10.60;99.90;;;;;;5018693;28;20033;-80
2023/03/29 09:55:17;;;;;;;11.05;4.53;;;11.20;99.90;;;;;;5034322;28;20454;-80
2023/03/29 09:57:43;;;;;;;11.32;3.75;;;10.90;99.90;;;;;;5007830;28;20037;-80
2023/03/29 10:00:10;;;;;;;4.32;3.40;;;10.90;99.90;;;;;;5012357;28;20441;-80
2023/03/29 10:02:36;;;;;;;12.27;3.83;;;11.20;99.90;;;;;;5021561;28;20124;-82
2023/03/29 10:05:04;;;;;;;15.95;4.22;;;11.30;99.90;;;;;;5004249;28;20698;-80
2023/03/29 10:07:54;;;;;;;13.25;3.67;;;11.50;99.90;;;;;;5016144;28;20037;-83
2023/03/29 10:10:30;;;;;;;13.35;4.53;;;11.50;99.90;;;;;;5005047;28;20041;-79
2023/03/29 10:12:59;;;;;;;5.75;3.53;;;11.90;99.90;;;;;;5000920;28;20494;-81
2023/03/29 10:15:27;;;;;;;10.23;4.07;;;12.00;99.90;;;;;;4991036;28;20054;-78
2023/03/29 10:18:02;;;;;;;8.45;4.28;;;12.40;99.90;;;;;;5029345;28;20026;-81
2023/03/29 10:20:27;;;;;;;11.35;3.92;;;12.50;99.90;;;;;;5007634;28;20105;-77
2023/03/29 10:22:59;;;;;;;4.50;2.45;;;12.40;99.90;;;;;;5000183;28;20515;-79
2023/03/29 10:25:29;;;;;;;11.07;3.60;;;12.60;99.90;;;;;;5006060;28;20485;-79
2023/03/29 10:28:01;;;;;;;6.15;2.47;;;12.20;99.90;;;;;;4999611;28;20026;-79
2023/03/29 10:30:43;;;;;;;9.88;3.53;;;12.80;99.90;;;;;;5020915;28;20517;-78
2023/03/29 10:33:17;;;;;;;6.93;3.78;;;12.90;99.90;;;;;;4992589;28;20041;-79
2023/03/29 10:35:45;;;;;;;8.10;3.80;;;12.90;99.90;;;;;;5027639;28;20033;-79
2023/03/29 10:38:13;;;;;;;10.52;4.22;;;12.90;99.90;;;;;;4991289;28;20034;-79
2023/03/29 10:40:50;;;;;;;8.18;2.35;;;13.50;99.90;;;;;;5005663;28;20037;-79
2023/03/29 10:43:16;;;;;;;4.97;3.33;;;13.10;99.90;;;;;;5013443;28;20442;-79
2023/03/29 10:45:41;;;;;;;5.53;2.58;;;13.40;99.90;;;;;;5017619;28;20029;-77
2023/03/29 10:48:14;;;;;;;5.93;3.10;;;13.70;99.90;;;;;;5014831;28;20121;-77
2023/03/29 10:50:39;;;;;;;5.93;3.10;;;14.00;99.90;;;;;;5031874;28;20071;-77
2023/03/29 10:53:27;;;;;;;8.05;2.78;;;14.40;99.90;;;;;;5014799;28;20038;-77
2023/03/29 10:56:16;;;;;;;8.68;3.17;;;14.10;99.90;;;;;;5019509;28;20037;-79
2023/03/29 10:59:16;;;;;;;6.88;3.60;;;13.70;99.90;;;;;;5015760;28;20044;-77
2023/03/29 11:01:48;;;;;;;3.03;1.88;;;14.00;99.90;;;;;;5005624;28;20493;-78
2023/03/29 11:04:38;;;;;;;6.05;2.95;;;14.70;99.90;;;;;;5005576;28;20045;-78
2023/03/29 11:07:12;;;;;;;2.38;1.52;;;14.50;99.90;;;;;;5017300;28;20156;-79
2023/03/29 11:10:11;;;;;;;6.57;2.80;;;13.90;99.90;;;;;;5018112;28;20150;-78
2023/03/29 11:13:07;;;;;;;6.95;3.38;;;14.60;99.90;;;;;;5010640;28;20044;-79
2023/03/29 11:15:44;;;;;;;7.47;3.27;;;14.70;99.90;;;;;;4998492;28;20102;-79
2023/03/29 11:18:16;;;;;;;3.10;1.80;;;15.00;99.90;;;;;;5038500;28;20061;-78
2023/03/29 11:20:55;;;;;;;3.78;2.85;;;14.60;99.90;;;;;;5021634;28;20033;-79
2023/03/29 11:23:52;;;;;;;7.55;3.28;;;14.50;99.90;;;;;;5021519;28;20040;-79
2023/03/29 11:26:52;;;;;;;4.15;1.48;;;15.00;99.90;;;;;;5008843;28;20033;-78
2023/03/29 11:29:28;;;;;;;6.35;2.10;;;14.80;99.90;;;;;;5008757;28;20041;-79
2023/03/29 11:31:57;;;;;;;2.88;1.95;;;15.40;99.90;;;;;;5010853;28;20040;-79
2023/03/29 11:34:29;;;;;;;7.45;2.80;;;16.00;99.90;;;;;;5014192;28;20041;-79
2023/03/29 11:36:58;;;;;;;4.78;2.80;;;15.50;99.90;;;;;;5017542;28;20433;-79
2023/03/29 11:39:59;;;;;;;4.75;2.15;;;15.70;99.90;;;;;;5022833;28;20034;-79
2023/03/29 11:42:28;;;;;;;6.10;3.03;;;15.70;99.90;;;;;;4999930;28;20034;-78
2023/03/29 11:44:54;;;;;;;3.97;2.35;;;16.50;99.90;;;;;;5026688;28;20524;-78
2023/03/29 11:47:21;;;;;;;10.55;2.75;;;15.90;99.90;;;;;;5032077;28;20096;-79
2023/03/29 11:49:53;;;;;;;8.23;2.67;;;16.40;99.90;;;;;;5003593;28;20037;-78
2023/03/29 11:52:36;;;;;;;2.88;1.48;;;15.80;99.90;;;;;;5011308;28;20512;-77
2023/03/29 11:55:03;;;;;;;6.63;2.58;;;16.20;99.90;;;;;;4991626;28;20398;-78
2023/03/29 11:57:37;;;;;;;8.80;3.22;;;16.50;99.90;;;;;;5018836;28;20030;-80
2023/03/29 12:00:27;;;;;;;4.00;2.33;;;16.20;99.90;;;;;;4993565;28;20037;-78
2023/03/29 12:03:03;;;;;;;4.47;2.92;;;16.20;99.90;;;;;;5017137;28;20026;-78
2023/03/29 12:05:31;;;;;;;7.93;3.40;;;16.30;99.90;;;;;;5018310;28;20113;-79
2023/03/29 12:08:13;;;;;;;4.53;2.55;;;16.30;99.90;;;;;;5017239;28;20025;-78
2023/03/29 12:10:50;;;;;;;2.30;1.73;;;16.40;99.90;;;;;;5032289;28;20132;-79
2023/03/29 12:13:24;;;;;;;8.48;2.70;;;16.30;99.90;;;;;;5003686;28;20029;-78
2023/03/29 12:15:53;;;;;;;9.95;2.80;;;16.80;99.90;;;;;;5001013;28;20048;-78
2023/03/29 12:18:23;;;;;;;5.93;2.70;;;16.50;99.90;;;;;;5015397;28;20509;-78
2023/03/29 12:20:56;;;;;;;6.22;2.47;;;16.70;99.90;;;;;;5003441;28;20079;-78
2023/03/29 12:23:21;;;;;;;5.53;3.22;;;16.50;99.90;;;;;;5016247;28;20034;-78
2023/03/29 12:26:03;;;;;;;8.52;2.15;;;16.30;99.90;;;;;;5002858;28;20375;-77
2023/03/29 12:28:52;;;;;;;3.50;2.10;;;15.90;99.90;;;;;;5031987;28;20087;-79
2023/03/29 12:31:24;;;;;;;4.97;2.33;;;15.80;99.90;;;;;;5034453;28;20107;-79
2023/03/29 12:34:00;;;;;;;7.47;2.92;;;15.80;99.90;;;;;;5019291;28;20132;-78
2023/03/29 12:36:40;;;;;;;;;;;15.80;99.90;;;;;;5033316;28;20099;-78
2023/03/29 12:39:14;;;;;;;3.10;1.95;;;15.90;99.90;;;;;;5025632;28;20365;-78
2023/03/29 12:41:43;;;;;;;3.92;2.83;;;16.20;99.90;;;;;;5009308;28;20037;-79
2023/03/29 12:44:12;;;;;;;7.05;3.20;;;15.80;99.90;;;;;;5018709;28;20510;-79
2023/03/29 12:46:37;;;;;;;4.82;2.80;;;15.70;99.90;;;;;;5008949;28;20083;-79
2023/03/29 12:49:12;;;;;;;3.25;2.17;;;15.80;99.90;;;;;;5017026;28;20046;-78
2023/03/29 12:51:39;;;;;;;4.72;2.75;;;15.70;99.90;;;;;;5020675;28;20034;-78
2023/03/29 12:54:14;;;;;;;3.97;2.45;;;15.70;99.90;;;;;;5030021;28;20073;-78
2023/03/29 12:56:53;;;;;;;6.50;2.22;;;15.60;99.90;;;;;;5015243;28;20037;-78
2023/03/29 12:59:38;;;;;;;6.80;2.78;;;15.50;99.90;;;;;;5017070;28;20034;-78
2023/03/29 13:02:12;;;;;;;4.55;2.63;;;15.60;99.90;;;;;;5018610;28;20046;-79
2023/03/29 13:04:48;;;;;;;8.18;3.58;;;16.60;99.90;;;;;;5024276;28;20045;-78
2023/03/29 13:07:25;;;;;;;7.97;2.95;;;16.40;99.90;;;;;;5006846;28;20566;-78
2023/03/29 13:09:58;;;;;;;6.80;2.70;;;16.40;99.90;;;;;;5020270;28;20037;-78